sensor_id;sensor_type;location;lat;lon;timestamp;P1;durP1;ratioP1;P2;durP2;ratioP2
56102;SDS011;41970;48.774;9.280;2022-12-13T00:00:09;15.13;;;11.00;;
56102;SDS011;41970;48.774;9.280;2022-12-13T00:02:41;16.13;;;12.32;;
56102;SDS011;41970;48.774;9.280;2022-12-13T00:05:08;17.83;;;11.68;;
56102;SDS011;41970;48.774;9.280;2022-12-13T00:07:34;15.02;;;11.20;;
56102;SDS011;41970;48.774;9.280;2022-12-13T00:10:00;19.70;;;12.70;;
56102;SDS011;41970;48.774;9.280;2022-12-13T00:12:27;22.45;;;14.05;;
56102;SDS011;41970;48.774;9.280;2022-12-13T00:14:53;15.03;;;10.83;;
56102;SDS011;41970;48.774;9.280;2022-12-13T00:17:19;17.17;;;12.10;;
56102;SDS011;41970;48.774;9.280;2022-12-13T00:19:47;19.23;;;12.83;;
56102;SDS011;41970;48.774;9.280;2022-12-13T00:22:14;19.48;;;12.93;;
56102;SDS011;41970;48.774;9.280;2022-12-13T00:24:41;18.10;;;12.40;;
56102;SDS011;41970;48.774;9.280;2022-12-13T00:27:07;17.35;;;11.88;;
56102;SDS011;41970;48.774;9.280;2022-12-13T00:29:33;21.13;;;12.95;;
56102;SDS011;41970;48.774;9.280;2022-12-13T00:32:00;18.08;;;11.93;;
56102;SDS011;41970;48.774;9.280;2022-12-13T00:34:25;23.67;;;13.40;;
56102;SDS011;41970;48.774;9.280;2022-12-13T00:36:52;15.77;;;10.63;;
56102;SDS011;41970;48.774;9.280;2022-12-13T00:39:18;20.17;;;12.63;;
56102;SDS011;41970;48.774;9.280;2022-12-13T00:41:45;17.40;;;11.25;;
56102;SDS011;41970;48.774;9.280;2022-12-13T00:44:11;18.75;;;13.75;;
56102;SDS011;41970;48.774;9.280;2022-12-13T00:46:38;18.17;;;11.75;;
56102;SDS011;41970;48.774;9.280;2022-12-13T00:49:05;18.27;;;13.60;;
56102;SDS011;41970;48.774;9.280;2022-12-13T00:51:31;16.45;;;11.23;;
56102;SDS011;41970;48.774;9.280;2022-12-13T00:53:59;16.02;;;12.88;;
56102;SDS011;41970;48.774;9.280;2022-12-13T00:56:27;14.57;;;10.13;;
56102;SDS011;41970;48.774;9.280;2022-12-13T00:58:54;18.90;;;13.73;;
56102;SDS011;41970;48.774;9.280;2022-12-13T01:01:27;21.48;;;11.90;;
56102;SDS011;41970;48.774;9.280;2022-12-13T01:03:56;15.95;;;11.80;;
56102;SDS011;41970;48.774;9.280;2022-12-13T01:06:28;19.70;;;11.85;;
56102;SDS011;41970;48.774;9.280;2022-12-13T01:09:05;17.73;;;12.27;;
56102;SDS011;41970;48.774;9.280;2022-12-13T01:11:34;16.30;;;11.52;;
56102;SDS011;41970;48.774;9.280;2022-12-13T01:14:00;16.50;;;12.10;;
56102;SDS011;41970;48.774;9.280;2022-12-13T01:16:27;18.02;;;12.48;;
56102;SDS011;41970;48.774;9.280;2022-12-13T01:18:53;20.45;;;11.80;;
56102;SDS011;41970;48.774;9.280;2022-12-13T01:21:21;16.20;;;10.93;;
56102;SDS011;41970;48.774;9.280;2022-12-13T01:23:47;15.97;;;11.23;;
56102;SDS011;41970;48.774;9.280;2022-12-13T01:26:18;15.40;;;10.82;;
56102;SDS011;41970;48.774;9.280;2022-12-13T01:28:45;15.50;;;11.05;;
56102;SDS011;41970;48.774;9.280;2022-12-13T01:31:13;19.08;;;12.63;;
56102;SDS011;41970;48.774;9.280;2022-12-13T01:33:41;15.48;;;10.50;;
56102;SDS011;41970;48.774;9.280;2022-12-13T01:36:15;15.43;;;11.73;;
56102;SDS011;41970;48.774;9.280;2022-12-13T01:38:43;17.00;;;11.57;;
56102;SDS011;41970;48.774;9.280;2022-12-13T01:41:12;16.02;;;11.60;;
56102;SDS011;41970;48.774;9.280;2022-12-13T01:46:12;17.77;;;9.98;;
56102;SDS011;41970;48.774;9.280;2022-12-13T01:48:41;19.98;;;11.70;;
56102;SDS011;41970;48.774;9.280;2022-12-13T01:51:16;18.40;;;11.25;;
56102;SDS011;41970;48.774;9.280;2022-12-13T01:53:45;17.20;;;11.38;;
56102;SDS011;41970;48.774;9.280;2022-12-13T01:56:14;17.40;;;12.13;;
56102;SDS011;41970;48.774;9.280;2022-12-13T01:58:49;15.57;;;11.02;;
56102;SDS011;41970;48.774;9.280;2022-12-13T02:01:18;17.70;;;11.05;;
56102;SDS011;41970;48.774;9.280;2022-12-13T02:03:45;19.80;;;12.70;;
56102;SDS011;41970;48.774;9.280;2022-12-13T02:08:56;17.88;;;11.70;;
56102;SDS011;41970;48.774;9.280;2022-12-13T02:11:22;20.00;;;12.50;;
56102;SDS011;41970;48.774;9.280;2022-12-13T02:13:48;16.48;;;11.38;;
56102;SDS011;41970;48.774;9.280;2022-12-13T02:25:00;14.05;;;9.63;;
56102;SDS011;41970;48.774;9.280;2022-12-13T02:30:37;19.13;;;9.60;;
56102;SDS011;41970;48.774;9.280;2022-12-13T02:35:45;13.50;;;9.77;;
56102;SDS011;41970;48.774;9.280;2022-12-13T02:43:42;14.45;;;10.20;;
56102;SDS011;41970;48.774;9.280;2022-12-13T02:46:14;16.02;;;10.68;;
56102;SDS011;41970;48.774;9.280;2022-12-13T02:48:44;16.02;;;9.65;;
56102;SDS011;41970;48.774;9.280;2022-12-13T02:51:13;16.85;;;11.00;;
56102;SDS011;41970;48.774;9.280;2022-12-13T02:53:40;17.13;;;10.15;;
56102;SDS011;41970;48.774;9.280;2022-12-13T02:56:09;15.68;;;10.40;;
56102;SDS011;41970;48.774;9.280;2022-12-13T02:58:37;15.75;;;11.05;;
56102;SDS011;41970;48.774;9.280;2022-12-13T03:03:39;13.50;;;9.70;;
56102;SDS011;41970;48.774;9.280;2022-12-13T03:06:24;15.38;;;9.90;;
56102;SDS011;41970;48.774;9.280;2022-12-13T03:12:05;16.30;;;9.90;;
56102;SDS011;41970;48.774;9.280;2022-12-13T03:17:22;12.63;;;9.55;;
56102;SDS011;41970;48.774;9.280;2022-12-13T03:19:50;17.27;;;9.65;;
56102;SDS011;41970;48.774;9.280;2022-12-13T03:22:17;16.80;;;9.35;;
56102;SDS011;41970;48.774;9.280;2022-12-13T03:24:44;13.18;;;9.73;;
56102;SDS011;41970;48.774;9.280;2022-12-13T03:27:10;13.85;;;9.98;;
56102;SDS011;41970;48.774;9.280;2022-12-13T03:29:38;13.68;;;9.85;;
56102;SDS011;41970;48.774;9.280;2022-12-13T03:32:04;14.25;;;10.02;;
56102;SDS011;41970;48.774;9.280;2022-12-13T03:34:30;13.18;;;9.35;;
56102;SDS011;41970;48.774;9.280;2022-12-13T03:36:56;14.33;;;9.27;;
56102;SDS011;41970;48.774;9.280;2022-12-13T03:39:21;13.63;;;9.90;;
56102;SDS011;41970;48.774;9.280;2022-12-13T03:41:48;11.80;;;8.70;;
56102;SDS011;41970;48.774;9.280;2022-12-13T03:44:14;11.93;;;8.23;;
56102;SDS011;41970;48.774;9.280;2022-12-13T03:46:40;12.45;;;8.93;;
56102;SDS011;41970;48.774;9.280;2022-12-13T03:49:06;13.80;;;9.40;;
56102;SDS011;41970;48.774;9.280;2022-12-13T03:51:32;12.63;;;8.53;;
56102;SDS011;41970;48.774;9.280;2022-12-13T03:53:58;13.02;;;7.68;;
56102;SDS011;41970;48.774;9.280;2022-12-13T03:56:24;14.30;;;8.23;;
56102;SDS011;41970;48.774;9.280;2022-12-13T03:58:50;12.47;;;8.80;;
56102;SDS011;41970;48.774;9.280;2022-12-13T04:01:16;14.87;;;9.60;;
56102;SDS011;41970;48.774;9.280;2022-12-13T04:03:43;10.30;;;7.57;;
56102;SDS011;41970;48.774;9.280;2022-12-13T04:06:13;14.93;;;9.20;;
56102;SDS011;41970;48.774;9.280;2022-12-13T04:08:39;11.93;;;8.00;;
56102;SDS011;41970;48.774;9.280;2022-12-13T04:11:06;13.20;;;7.97;;
56102;SDS011;41970;48.774;9.280;2022-12-13T04:13:50;11.48;;;9.38;;
56102;SDS011;41970;48.774;9.280;2022-12-13T04:16:17;10.10;;;7.78;;
56102;SDS011;41970;48.774;9.280;2022-12-13T04:18:43;11.73;;;8.43;;
56102;SDS011;41970;48.774;9.280;2022-12-13T04:21:09;11.77;;;8.47;;
56102;SDS011;41970;48.774;9.280;2022-12-13T04:23:35;13.07;;;8.37;;
56102;SDS011;41970;48.774;9.280;2022-12-13T04:26:01;11.87;;;8.67;;
56102;SDS011;41970;48.774;9.280;2022-12-13T04:28:27;8.80;;;6.43;;
56102;SDS011;41970;48.774;9.280;2022-12-13T04:30:53;13.23;;;8.87;;
56102;SDS011;41970;48.774;9.280;2022-12-13T04:33:22;16.47;;;9.87;;
56102;SDS011;41970;48.774;9.280;2022-12-13T04:35:49;10.85;;;8.68;;
56102;SDS011;41970;48.774;9.280;2022-12-13T04:38:15;9.98;;;7.30;;
56102;SDS011;41970;48.774;9.280;2022-12-13T04:40:41;11.10;;;7.35;;
56102;SDS011;41970;48.774;9.280;2022-12-13T04:43:07;12.70;;;8.23;;
56102;SDS011;41970;48.774;9.280;2022-12-13T04:45:33;11.30;;;7.77;;
56102;SDS011;41970;48.774;9.280;2022-12-13T04:47:59;13.63;;;8.57;;
56102;SDS011;41970;48.774;9.280;2022-12-13T04:50:25;10.27;;;6.40;;
56102;SDS011;41970;48.774;9.280;2022-12-13T04:52:51;10.40;;;7.20;;
56102;SDS011;41970;48.774;9.280;2022-12-13T04:55:16;9.70;;;7.53;;
56102;SDS011;41970;48.774;9.280;2022-12-13T04:57:42;11.20;;;7.37;;
56102;SDS011;41970;48.774;9.280;2022-12-13T05:00:09;10.20;;;7.93;;
56102;SDS011;41970;48.774;9.280;2022-12-13T05:02:37;12.13;;;8.05;;
56102;SDS011;41970;48.774;9.280;2022-12-13T05:05:06;9.57;;;6.30;;
56102;SDS011;41970;48.774;9.280;2022-12-13T05:07:33;11.43;;;6.93;;
56102;SDS011;41970;48.774;9.280;2022-12-13T05:10:00;9.77;;;6.72;;
56102;SDS011;41970;48.774;9.280;2022-12-13T05:12:25;9.27;;;6.67;;
56102;SDS011;41970;48.774;9.280;2022-12-13T05:14:51;10.60;;;6.90;;
56102;SDS011;41970;48.774;9.280;2022-12-13T05:17:17;10.32;;;7.28;;
56102;SDS011;41970;48.774;9.280;2022-12-13T05:19:44;9.10;;;7.07;;
56102;SDS011;41970;48.774;9.280;2022-12-13T05:22:09;9.67;;;7.47;;
56102;SDS011;41970;48.774;9.280;2022-12-13T05:24:42;9.68;;;6.80;;
56102;SDS011;41970;48.774;9.280;2022-12-13T05:27:09;10.35;;;7.25;;
56102;SDS011;41970;48.774;9.280;2022-12-13T05:29:36;8.20;;;6.95;;
56102;SDS011;41970;48.774;9.280;2022-12-13T05:32:02;12.52;;;7.70;;
56102;SDS011;41970;48.774;9.280;2022-12-13T05:34:28;10.90;;;7.95;;
56102;SDS011;41970;48.774;9.280;2022-12-13T05:36:54;10.47;;;6.87;;
56102;SDS011;41970;48.774;9.280;2022-12-13T05:39:20;11.90;;;7.60;;
56102;SDS011;41970;48.774;9.280;2022-12-13T05:41:46;10.00;;;6.77;;
56102;SDS011;41970;48.774;9.280;2022-12-13T05:44:12;12.07;;;8.32;;
56102;SDS011;41970;48.774;9.280;2022-12-13T05:46:39;11.52;;;6.70;;
56102;SDS011;41970;48.774;9.280;2022-12-13T05:49:05;12.60;;;8.07;;
56102;SDS011;41970;48.774;9.280;2022-12-13T05:51:31;13.93;;;8.83;;
56102;SDS011;41970;48.774;9.280;2022-12-13T05:53:57;10.40;;;7.53;;
56102;SDS011;41970;48.774;9.280;2022-12-13T05:56:22;10.30;;;8.13;;
56102;SDS011;41970;48.774;9.280;2022-12-13T05:58:48;10.53;;;7.53;;
56102;SDS011;41970;48.774;9.280;2022-12-13T06:01:14;13.13;;;8.13;;
56102;SDS011;41970;48.774;9.280;2022-12-13T06:03:41;10.15;;;7.72;;
56102;SDS011;41970;48.774;9.280;2022-12-13T06:06:08;10.10;;;7.95;;
56102;SDS011;41970;48.774;9.280;2022-12-13T06:08:36;12.80;;;6.90;;
56102;SDS011;41970;48.774;9.280;2022-12-13T06:11:03;9.05;;;6.70;;
56102;SDS011;41970;48.774;9.280;2022-12-13T06:13:30;13.60;;;7.57;;
56102;SDS011;41970;48.774;9.280;2022-12-13T06:15:59;9.80;;;7.30;;
56102;SDS011;41970;48.774;9.280;2022-12-13T06:18:26;12.00;;;7.65;;
56102;SDS011;41970;48.774;9.280;2022-12-13T06:20:54;12.55;;;8.85;;
56102;SDS011;41970;48.774;9.280;2022-12-13T06:23:33;13.75;;;7.63;;
56102;SDS011;41970;48.774;9.280;2022-12-13T06:26:03;17.10;;;8.40;;
56102;SDS011;41970;48.774;9.280;2022-12-13T06:28:30;13.55;;;8.95;;
56102;SDS011;41970;48.774;9.280;2022-12-13T06:31:00;18.30;;;9.35;;
56102;SDS011;41970;48.774;9.280;2022-12-13T06:33:27;12.15;;;8.65;;
56102;SDS011;41970;48.774;9.280;2022-12-13T06:35:56;16.58;;;9.30;;
56102;SDS011;41970;48.774;9.280;2022-12-13T06:38:25;11.55;;;9.38;;
56102;SDS011;41970;48.774;9.280;2022-12-13T06:40:51;12.00;;;8.02;;
56102;SDS011;41970;48.774;9.280;2022-12-13T06:43:20;11.63;;;7.83;;
56102;SDS011;41970;48.774;9.280;2022-12-13T06:45:46;14.10;;;8.38;;
56102;SDS011;41970;48.774;9.280;2022-12-13T06:48:12;10.63;;;8.13;;
56102;SDS011;41970;48.774;9.280;2022-12-13T06:50:37;14.07;;;9.67;;
56102;SDS011;41970;48.774;9.280;2022-12-13T06:53:03;15.13;;;12.10;;
56102;SDS011;41970;48.774;9.280;2022-12-13T06:55:29;20.93;;;11.70;;
56102;SDS011;41970;48.774;9.280;2022-12-13T06:57:56;17.27;;;11.50;;
56102;SDS011;41970;48.774;9.280;2022-12-13T07:00:22;15.32;;;10.55;;
56102;SDS011;41970;48.774;9.280;2022-12-13T07:02:52;21.23;;;14.50;;
56102;SDS011;41970;48.774;9.280;2022-12-13T07:05:19;39.83;;;26.92;;
56102;SDS011;41970;48.774;9.280;2022-12-13T07:07:45;33.78;;;22.45;;
56102;SDS011;41970;48.774;9.280;2022-12-13T07:10:11;27.43;;;14.97;;
56102;SDS011;41970;48.774;9.280;2022-12-13T07:12:36;14.53;;;9.43;;
56102;SDS011;41970;48.774;9.280;2022-12-13T07:15:02;33.00;;;18.67;;
56102;SDS011;41970;48.774;9.280;2022-12-13T07:17:28;53.88;;;28.38;;
56102;SDS011;41970;48.774;9.280;2022-12-13T07:19:54;44.73;;;23.03;;
56102;SDS011;41970;48.774;9.280;2022-12-13T07:22:20;46.40;;;24.00;;
56102;SDS011;41970;48.774;9.280;2022-12-13T07:24:46;44.60;;;26.73;;
56102;SDS011;41970;48.774;9.280;2022-12-13T07:27:12;67.07;;;32.73;;
56102;SDS011;41970;48.774;9.280;2022-12-13T07:29:37;57.00;;;31.17;;
56102;SDS011;41970;48.774;9.280;2022-12-13T07:32:03;26.58;;;14.60;;
56102;SDS011;41970;48.774;9.280;2022-12-13T07:34:29;21.70;;;14.37;;
56102;SDS011;41970;48.774;9.280;2022-12-13T07:36:55;14.33;;;9.23;;
56102;SDS011;41970;48.774;9.280;2022-12-13T07:39:22;16.10;;;9.03;;
56102;SDS011;41970;48.774;9.280;2022-12-13T07:41:52;13.70;;;9.35;;
56102;SDS011;41970;48.774;9.280;2022-12-13T07:44:20;10.82;;;8.27;;
56102;SDS011;41970;48.774;9.280;2022-12-13T07:46:47;16.88;;;9.82;;
56102;SDS011;41970;48.774;9.280;2022-12-13T07:49:12;11.27;;;9.17;;
56102;SDS011;41970;48.774;9.280;2022-12-13T07:51:38;13.27;;;8.30;;
56102;SDS011;41970;48.774;9.280;2022-12-13T07:54:04;13.07;;;10.10;;
56102;SDS011;41970;48.774;9.280;2022-12-13T07:56:32;16.70;;;10.80;;
56102;SDS011;41970;48.774;9.280;2022-12-13T07:59:01;17.63;;;12.23;;
56102;SDS011;41970;48.774;9.280;2022-12-13T08:01:27;20.52;;;14.23;;
56102;SDS011;41970;48.774;9.280;2022-12-13T08:03:56;21.67;;;13.90;;
56102;SDS011;41970;48.774;9.280;2022-12-13T08:06:22;18.77;;;12.70;;
56102;SDS011;41970;48.774;9.280;2022-12-13T08:08:48;17.63;;;12.23;;
56102;SDS011;41970;48.774;9.280;2022-12-13T08:11:15;13.27;;;9.82;;
56102;SDS011;41970;48.774;9.280;2022-12-13T08:13:41;13.73;;;10.65;;
56102;SDS011;41970;48.774;9.280;2022-12-13T08:16:08;19.67;;;12.47;;
56102;SDS011;41970;48.774;9.280;2022-12-13T08:18:36;13.25;;;11.00;;
56102;SDS011;41970;48.774;9.280;2022-12-13T08:21:04;14.52;;;11.23;;
56102;SDS011;41970;48.774;9.280;2022-12-13T08:23:31;13.57;;;10.50;;
56102;SDS011;41970;48.774;9.280;2022-12-13T08:25:58;13.73;;;9.60;;
56102;SDS011;41970;48.774;9.280;2022-12-13T08:28:25;15.48;;;10.88;;
56102;SDS011;41970;48.774;9.280;2022-12-13T08:30:53;11.95;;;9.88;;
56102;SDS011;41970;48.774;9.280;2022-12-13T08:33:20;14.30;;;9.70;;
56102;SDS011;41970;48.774;9.280;2022-12-13T08:35:46;17.70;;;9.48;;
56102;SDS011;41970;48.774;9.280;2022-12-13T08:38:12;12.60;;;9.63;;
56102;SDS011;41970;48.774;9.280;2022-12-13T08:40:38;11.02;;;7.72;;
56102;SDS011;41970;48.774;9.280;2022-12-13T08:43:04;10.45;;;7.43;;
56102;SDS011;41970;48.774;9.280;2022-12-13T08:45:30;11.80;;;7.50;;
56102;SDS011;41970;48.774;9.280;2022-12-13T08:47:58;12.75;;;8.00;;
56102;SDS011;41970;48.774;9.280;2022-12-13T08:50:25;15.30;;;8.30;;
56102;SDS011;41970;48.774;9.280;2022-12-13T08:52:52;13.10;;;9.45;;
56102;SDS011;41970;48.774;9.280;2022-12-13T08:55:18;9.77;;;6.67;;
56102;SDS011;41970;48.774;9.280;2022-12-13T08:57:44;12.88;;;8.52;;
56102;SDS011;41970;48.774;9.280;2022-12-13T09:00:12;13.80;;;8.27;;
56102;SDS011;41970;48.774;9.280;2022-12-13T09:02:40;13.10;;;8.95;;
56102;SDS011;41970;48.774;9.280;2022-12-13T09:05:07;9.85;;;7.65;;
56102;SDS011;41970;48.774;9.280;2022-12-13T09:07:35;13.70;;;7.75;;
56102;SDS011;41970;48.774;9.280;2022-12-13T09:10:03;14.45;;;8.40;;
56102;SDS011;41970;48.774;9.280;2022-12-13T09:12:30;12.93;;;8.57;;
56102;SDS011;41970;48.774;9.280;2022-12-13T09:14:55;12.90;;;8.33;;
56102;SDS011;41970;48.774;9.280;2022-12-13T09:17:21;12.27;;;6.90;;
56102;SDS011;41970;48.774;9.280;2022-12-13T09:19:47;13.87;;;7.97;;
56102;SDS011;41970;48.774;9.280;2022-12-13T09:22:13;14.67;;;9.73;;
56102;SDS011;41970;48.774;9.280;2022-12-13T09:24:39;19.03;;;8.60;;
56102;SDS011;41970;48.774;9.280;2022-12-13T09:27:04;10.20;;;7.13;;
56102;SDS011;41970;48.774;9.280;2022-12-13T09:29:32;15.18;;;8.00;;
56102;SDS011;41970;48.774;9.280;2022-12-13T09:31:59;11.55;;;7.88;;
56102;SDS011;41970;48.774;9.280;2022-12-13T09:34:25;10.85;;;7.70;;
56102;SDS011;41970;48.774;9.280;2022-12-13T09:36:51;9.87;;;6.60;;
56102;SDS011;41970;48.774;9.280;2022-12-13T09:39:16;12.17;;;8.43;;
56102;SDS011;41970;48.774;9.280;2022-12-13T09:41:43;11.80;;;7.20;;
56102;SDS011;41970;48.774;9.280;2022-12-13T09:44:18;14.05;;;8.80;;
56102;SDS011;41970;48.774;9.280;2022-12-13T09:46:48;10.95;;;7.75;;
56102;SDS011;41970;48.774;9.280;2022-12-13T09:51:49;11.25;;;7.05;;
56102;SDS011;41970;48.774;9.280;2022-12-13T09:54:19;10.18;;;6.93;;
56102;SDS011;41970;48.774;9.280;2022-12-13T09:56:47;10.70;;;7.28;;
56102;SDS011;41970;48.774;9.280;2022-12-13T09:59:18;9.52;;;6.63;;
56102;SDS011;41970;48.774;9.280;2022-12-13T10:01:55;10.60;;;7.55;;
56102;SDS011;41970;48.774;9.280;2022-12-13T10:04:26;15.55;;;8.63;;
56102;SDS011;41970;48.774;9.280;2022-12-13T10:06:53;12.70;;;8.25;;
56102;SDS011;41970;48.774;9.280;2022-12-13T10:09:23;12.10;;;8.90;;
56102;SDS011;41970;48.774;9.280;2022-12-13T10:11:50;9.07;;;7.90;;
56102;SDS011;41970;48.774;9.280;2022-12-13T10:14:25;10.00;;;6.45;;
56102;SDS011;41970;48.774;9.280;2022-12-13T10:16:58;10.68;;;6.57;;
56102;SDS011;41970;48.774;9.280;2022-12-13T10:19:32;10.73;;;8.13;;
56102;SDS011;41970;48.774;9.280;2022-12-13T10:22:11;9.82;;;7.45;;
56102;SDS011;41970;48.774;9.280;2022-12-13T10:24:47;13.43;;;8.27;;
56102;SDS011;41970;48.774;9.280;2022-12-13T10:27:26;11.77;;;8.07;;
56102;SDS011;41970;48.774;9.280;2022-12-13T10:30:11;10.15;;;7.97;;
56102;SDS011;41970;48.774;9.280;2022-12-13T10:35:18;11.68;;;8.13;;
56102;SDS011;41970;48.774;9.280;2022-12-13T10:37:45;9.82;;;8.13;;
56102;SDS011;41970;48.774;9.280;2022-12-13T10:43:20;13.98;;;8.30;;
56102;SDS011;41970;48.774;9.280;2022-12-13T10:51:15;11.95;;;8.25;;
56102;SDS011;41970;48.774;9.280;2022-12-13T10:53:48;15.77;;;8.55;;
56102;SDS011;41970;48.774;9.280;2022-12-13T10:56:18;11.57;;;8.00;;
56102;SDS011;41970;48.774;9.280;2022-12-13T10:58:46;9.50;;;8.32;;
56102;SDS011;41970;48.774;9.280;2022-12-13T11:03:59;12.00;;;7.60;;
56102;SDS011;41970;48.774;9.280;2022-12-13T11:06:27;13.88;;;9.50;;
56102;SDS011;41970;48.774;9.280;2022-12-13T11:09:14;11.93;;;7.80;;
56102;SDS011;41970;48.774;9.280;2022-12-13T11:11:41;13.50;;;7.85;;
56102;SDS011;41970;48.774;9.280;2022-12-13T11:14:15;13.10;;;8.50;;
56102;SDS011;41970;48.774;9.280;2022-12-13T11:16:44;12.98;;;7.97;;
56102;SDS011;41970;48.774;9.280;2022-12-13T11:19:20;12.60;;;7.85;;
56102;SDS011;41970;48.774;9.280;2022-12-13T11:21:51;11.25;;;7.97;;
56102;SDS011;41970;48.774;9.280;2022-12-13T11:24:23;11.82;;;7.22;;
56102;SDS011;41970;48.774;9.280;2022-12-13T11:26:58;11.65;;;8.38;;
56102;SDS011;41970;48.774;9.280;2022-12-13T11:40:04;11.93;;;8.10;;
56102;SDS011;41970;48.774;9.280;2022-12-13T11:45:44;16.83;;;9.10;;
56102;SDS011;41970;48.774;9.280;2022-12-13T11:50:35;12.25;;;7.70;;
56102;SDS011;41970;48.774;9.280;2022-12-13T11:53:27;11.70;;;8.90;;
56102;SDS011;41970;48.774;9.280;2022-12-13T11:55:57;9.45;;;7.28;;
56102;SDS011;41970;48.774;9.280;2022-12-13T12:01:16;10.30;;;7.53;;
56102;SDS011;41970;48.774;9.280;2022-12-13T12:03:53;13.82;;;8.25;;
56102;SDS011;41970;48.774;9.280;2022-12-13T12:06:47;10.65;;;6.97;;
56102;SDS011;41970;48.774;9.280;2022-12-13T12:09:22;10.57;;;7.15;;
56102;SDS011;41970;48.774;9.280;2022-12-13T12:12:34;14.48;;;8.48;;
56102;SDS011;41970;48.774;9.280;2022-12-13T12:15:28;11.95;;;8.30;;
56102;SDS011;41970;48.774;9.280;2022-12-13T12:17:59;10.43;;;7.05;;
56102;SDS011;41970;48.774;9.280;2022-12-13T12:20:32;13.70;;;7.70;;
56102;SDS011;41970;48.774;9.280;2022-12-13T12:23:21;8.65;;;7.70;;
56102;SDS011;41970;48.774;9.280;2022-12-13T12:36:45;11.43;;;7.43;;
56102;SDS011;41970;48.774;9.280;2022-12-13T12:40:27;12.02;;;7.95;;
56102;SDS011;41970;48.774;9.280;2022-12-13T12:42:33;8.40;;;6.35;;
56102;SDS011;41970;48.774;9.280;2022-12-13T12:48:09;10.90;;;7.70;;
56102;SDS011;41970;48.774;9.280;2022-12-13T12:50:57;10.02;;;6.80;;
56102;SDS011;41970;48.774;9.280;2022-12-13T12:56:48;9.93;;;6.70;;
56102;SDS011;41970;48.774;9.280;2022-12-13T13:00:04;10.10;;;7.63;;
56102;SDS011;41970;48.774;9.280;2022-12-13T13:05:37;11.75;;;7.50;;
56102;SDS011;41970;48.774;9.280;2022-12-13T13:10:38;12.85;;;8.40;;
56102;SDS011;41970;48.774;9.280;2022-12-13T13:13:31;11.07;;;8.48;;
56102;SDS011;41970;48.774;9.280;2022-12-13T13:18:52;10.50;;;7.13;;
56102;SDS011;41970;48.774;9.280;2022-12-13T13:24:33;8.57;;;7.18;;
56102;SDS011;41970;48.774;9.280;2022-12-13T13:26:58;15.70;;;8.20;;
56102;SDS011;41970;48.774;9.280;2022-12-13T13:29:44;12.55;;;7.10;;
56102;SDS011;41970;48.774;9.280;2022-12-13T13:34:37;11.17;;;8.60;;
56102;SDS011;41970;48.774;9.280;2022-12-13T13:46:09;12.90;;;7.90;;
56102;SDS011;41970;48.774;9.280;2022-12-13T13:57:17;11.13;;;8.10;;
56102;SDS011;41970;48.774;9.280;2022-12-13T14:05:34;9.05;;;7.28;;
56102;SDS011;41970;48.774;9.280;2022-12-13T14:17:00;9.50;;;6.05;;
56102;SDS011;41970;48.774;9.280;2022-12-13T14:30:46;10.82;;;7.88;;
56102;SDS011;41970;48.774;9.280;2022-12-13T14:33:21;11.53;;;7.70;;
56102;SDS011;41970;48.774;9.280;2022-12-13T14:35:50;12.50;;;7.65;;
56102;SDS011;41970;48.774;9.280;2022-12-13T14:38:21;20.00;;;7.82;;
56102;SDS011;41970;48.774;9.280;2022-12-13T14:40:50;7.72;;;6.07;;
56102;SDS011;41970;48.774;9.280;2022-12-13T14:43:25;9.07;;;5.88;;
56102;SDS011;41970;48.774;9.280;2022-12-13T14:45:59;13.82;;;7.10;;
56102;SDS011;41970;48.774;9.280;2022-12-13T14:48:49;10.57;;;6.70;;
56102;SDS011;41970;48.774;9.280;2022-12-13T14:51:23;11.52;;;7.32;;
56102;SDS011;41970;48.774;9.280;2022-12-13T14:54:02;9.82;;;7.03;;
56102;SDS011;41970;48.774;9.280;2022-12-13T14:56:29;7.18;;;5.90;;
56102;SDS011;41970;48.774;9.280;2022-12-13T14:58:57;8.60;;;7.32;;
56102;SDS011;41970;48.774;9.280;2022-12-13T15:01:31;8.30;;;6.55;;
56102;SDS011;41970;48.774;9.280;2022-12-13T15:09:52;9.95;;;6.95;;
56102;SDS011;41970;48.774;9.280;2022-12-13T15:12:22;13.88;;;7.40;;
56102;SDS011;41970;48.774;9.280;2022-12-13T15:14:59;11.07;;;7.38;;
56102;SDS011;41970;48.774;9.280;2022-12-13T15:17:35;9.73;;;6.10;;
56102;SDS011;41970;48.774;9.280;2022-12-13T15:20:45;7.57;;;6.13;;
56102;SDS011;41970;48.774;9.280;2022-12-13T15:22:57;14.10;;;7.35;;
56102;SDS011;41970;48.774;9.280;2022-12-13T15:25:33;12.02;;;6.68;;
56102;SDS011;41970;48.774;9.280;2022-12-13T15:28:00;11.60;;;6.32;;
56102;SDS011;41970;48.774;9.280;2022-12-13T15:30:28;7.65;;;6.00;;
56102;SDS011;41970;48.774;9.280;2022-12-13T15:33:06;9.45;;;6.40;;
56102;SDS011;41970;48.774;9.280;2022-12-13T15:35:45;11.80;;;6.65;;
56102;SDS011;41970;48.774;9.280;2022-12-13T15:38:13;11.52;;;8.15;;
56102;SDS011;41970;48.774;9.280;2022-12-13T15:40:43;12.68;;;6.80;;
56102;SDS011;41970;48.774;9.280;2022-12-13T15:43:15;11.70;;;8.10;;
56102;SDS011;41970;48.774;9.280;2022-12-13T15:45:48;12.32;;;6.88;;
56102;SDS011;41970;48.774;9.280;2022-12-13T15:48:28;8.65;;;6.28;;
56102;SDS011;41970;48.774;9.280;2022-12-13T15:51:11;18.35;;;11.05;;
56102;SDS011;41970;48.774;9.280;2022-12-13T15:56:40;11.52;;;7.85;;
56102;SDS011;41970;48.774;9.280;2022-12-13T15:59:27;15.15;;;7.72;;
56102;SDS011;41970;48.774;9.280;2022-12-13T16:01:57;18.67;;;6.70;;
56102;SDS011;41970;48.774;9.280;2022-12-13T16:04:25;22.63;;;7.90;;
56102;SDS011;41970;48.774;9.280;2022-12-13T16:06:53;9.82;;;6.97;;
56102;SDS011;41970;48.774;9.280;2022-12-13T16:09:20;12.23;;;7.13;;
56102;SDS011;41970;48.774;9.280;2022-12-13T16:12:13;9.00;;;6.25;;
56102;SDS011;41970;48.774;9.280;2022-12-13T16:14:43;11.52;;;6.82;;
56102;SDS011;41970;48.774;9.280;2022-12-13T16:17:16;22.15;;;7.90;;
56102;SDS011;41970;48.774;9.280;2022-12-13T16:19:48;10.82;;;7.82;;
56102;SDS011;41970;48.774;9.280;2022-12-13T16:22:16;8.73;;;7.15;;
56102;SDS011;41970;48.774;9.280;2022-12-13T16:24:45;13.82;;;8.85;;
56102;SDS011;41970;48.774;9.280;2022-12-13T16:27:12;13.07;;;8.35;;
56102;SDS011;41970;48.774;9.280;2022-12-13T16:29:39;9.77;;;8.70;;
56102;SDS011;41970;48.774;9.280;2022-12-13T16:32:05;12.55;;;9.35;;
56102;SDS011;41970;48.774;9.280;2022-12-13T16:34:31;10.88;;;7.95;;
56102;SDS011;41970;48.774;9.280;2022-12-13T16:37:00;13.75;;;8.35;;
56102;SDS011;41970;48.774;9.280;2022-12-13T16:39:26;11.93;;;8.30;;
56102;SDS011;41970;48.774;9.280;2022-12-13T16:41:51;12.20;;;7.20;;
56102;SDS011;41970;48.774;9.280;2022-12-13T16:44:22;12.38;;;7.20;;
56102;SDS011;41970;48.774;9.280;2022-12-13T16:46:56;9.00;;;8.10;;
56102;SDS011;41970;48.774;9.280;2022-12-13T16:49:23;10.67;;;8.57;;
56102;SDS011;41970;48.774;9.280;2022-12-13T16:51:51;11.80;;;7.40;;
56102;SDS011;41970;48.774;9.280;2022-12-13T16:54:17;10.52;;;7.65;;
56102;SDS011;41970;48.774;9.280;2022-12-13T16:56:46;11.70;;;7.80;;
56102;SDS011;41970;48.774;9.280;2022-12-13T16:59:16;11.00;;;6.63;;
56102;SDS011;41970;48.774;9.280;2022-12-13T17:01:44;12.80;;;8.75;;
56102;SDS011;41970;48.774;9.280;2022-12-13T17:04:11;11.95;;;7.65;;
56102;SDS011;41970;48.774;9.280;2022-12-13T17:06:39;10.55;;;7.85;;
56102;SDS011;41970;48.774;9.280;2022-12-13T17:09:05;13.15;;;7.65;;
56102;SDS011;41970;48.774;9.280;2022-12-13T17:11:32;11.10;;;7.72;;
56102;SDS011;41970;48.774;9.280;2022-12-13T17:13:59;10.95;;;7.93;;
56102;SDS011;41970;48.774;9.280;2022-12-13T17:16:26;11.32;;;8.52;;
56102;SDS011;41970;48.774;9.280;2022-12-13T17:18:52;10.00;;;6.63;;